Time;durP1;ratioP1;P1;durP2;ratioP2;P2;SDS_P1;SDS_P2;PMS_P1;PMS_P2;Temp;Humidity;BMP_temperature;BMP_pressure;BME280_temperature;BME280_humidity;BME280_pressure;Samples;Min_cycle;Max_cycle;Signal;HPM_P1;HPM_P2
2022/01/09 00:01:15;;;;;;;6.55;5.95;;;4.40;99.90;;;;;;5068262;28;20458;-51
2022/01/09 00:03:41;;;;;;;6.22;5.63;;;4.30;99.90;;;;;;5052907;28;20048;-49
2022/01/09 00:06:07;;;;;;;6.28;5.70;;;4.30;99.90;;;;;;5052724;28;20049;-46
2022/01/09 00:08:33;;;;;;;7.93;7.22;;;4.30;99.90;;;;;;5061491;28;20044;-47
2022/01/09 00:10:58;;;;;;;6.93;6.32;;;4.40;99.90;;;;;;5070082;28;20059;-47
2022/01/09 00:13:24;;;;;;;7.05;5.68;;;4.40;99.90;;;;;;5056265;28;20398;-48
2022/01/09 00:15:49;;;;;;;5.60;5.10;;;4.40;99.90;;;;;;5068474;28;20391;-49
2022/01/09 00:18:15;;;;;;;6.25;5.65;;;4.40;99.90;;;;;;5065926;28;20046;-48
2022/01/09 00:20:40;;;;;;;5.70;5.20;;;4.40;99.90;;;;;;5065995;28;20462;-47
2022/01/09 00:23:06;;;;;;;6.03;5.38;;;4.40;99.90;;;;;;5070014;28;20067;-46
2022/01/09 00:25:32;;;;;;;5.75;5.25;;;4.40;99.90;;;;;;5069802;28;20401;-47
2022/01/09 00:27:57;;;;;;;5.65;5.25;;;4.40;99.90;;;;;;5062232;28;20040;-47
2022/01/09 00:30:24;;;;;;;6.25;5.75;;;4.40;99.90;;;;;;5063711;28;20069;-48
2022/01/09 00:32:51;;;;;;;6.50;5.90;;;4.40;99.90;;;;;;5055177;28;20104;-47
2022/01/09 00:35:17;;;;;;;6.55;5.95;;;4.40;99.90;;;;;;5054001;28;20453;-46
2022/01/09 00:37:43;;;;;;;7.13;6.45;;;4.40;99.90;;;;;;5068844;28;20066;-48
2022/01/09 00:40:11;;;;;;;6.25;5.75;;;4.40;99.90;;;;;;5066807;28;20127;-47
2022/01/09 00:42:37;;;;;;;6.85;6.22;;;4.40;99.90;;;;;;5070263;28;20045;-47
2022/01/09 00:45:05;;;;;;;6.82;6.22;;;4.40;99.90;;;;;;5068431;28;20498;-46
2022/01/09 00:47:31;;;;;;;6.32;5.72;;;4.40;99.90;;;;;;5067056;28;20360;-47
2022/01/09 00:49:56;;;;;;;8.20;6.15;;;4.40;99.90;;;;;;5065588;28;20105;-47
2022/01/09 00:52:22;;;;;;;8.70;6.40;;;4.40;99.90;;;;;;5066812;28;20103;-47
2022/01/09 00:54:47;;;;;;;6.78;6.18;;;4.40;99.90;;;;;;5070404;28;20029;-51
2022/01/09 00:57:13;;;;;;;6.93;6.32;;;4.30;99.90;;;;;;5069782;28;20087;-48
2022/01/09 00:59:38;;;;;;;6.72;6.22;;;4.30;99.90;;;;;;5066063;28;20422;-48
2022/01/09 01:02:04;;;;;;;8.32;7.63;;;4.30;99.90;;;;;;5059958;28;20470;-46
2022/01/09 01:04:30;;;;;;;8.38;7.57;;;4.30;99.90;;;;;;5054789;28;20057;-47
2022/01/09 01:06:55;;;;;;;8.25;7.55;;;4.30;99.90;;;;;;5064937;28;20236;-47
2022/01/09 01:09:23;;;;;;;8.55;7.85;;;4.30;99.90;;;;;;5061557;28;20045;-47
2022/01/09 01:11:49;;;;;;;8.95;8.15;;;4.30;99.90;;;;;;5068063;28;20510;-47
2022/01/09 01:14:15;;;;;;;9.68;8.88;;;4.30;99.90;;;;;;5061173;28;20056;-47
2022/01/09 01:16:41;;;;;;;9.60;8.73;;;4.40;99.90;;;;;;5063894;28;20048;-49
2022/01/09 01:19:06;;;;;;;9.43;8.63;;;4.30;99.90;;;;;;5065616;28;20047;-47
2022/01/09 01:21:33;;;;;;;9.48;8.68;;;4.40;99.90;;;;;;5066209;28;20036;-47
2022/01/09 01:23:59;;;;;;;10.10;9.15;;;4.40;99.90;;;;;;5066448;28;20041;-47
2022/01/09 01:26:24;;;;;;;9.70;8.80;;;4.30;99.90;;;;;;5061632;28;20059;-49
2022/01/09 01:28:50;;;;;;;12.55;10.60;;;4.30;99.90;;;;;;5060256;28;20490;-47
2022/01/09 01:31:15;;;;;;;12.23;11.15;;;4.30;99.90;;;;;;5066039;28;20041;-47
2022/01/09 01:33:41;;;;;;;13.48;12.15;;;4.30;99.90;;;;;;5068789;28;20056;-48
2022/01/09 01:36:06;;;;;;;13.75;12.45;;;4.30;99.90;;;;;;5068084;28;20044;-46
2022/01/09 01:38:33;;;;;;;14.95;13.52;;;4.30;99.90;;;;;;5061999;28;20465;-48
2022/01/09 01:40:58;;;;;;;14.07;12.85;;;4.30;99.90;;;;;;5059457;28;20394;-47
2022/01/09 01:43:25;;;;;;;14.40;13.05;;;4.30;99.90;;;;;;5058898;28;20037;-47
2022/01/09 01:45:51;;;;;;;15.88;14.48;;;4.30;99.90;;;;;;5064271;28;20106;-49
2022/01/09 01:48:17;;;;;;;15.57;14.18;;;4.30;99.90;;;;;;5065975;28;20131;-50
2022/01/09 01:50:43;;;;;;;16.42;14.73;;;4.30;99.90;;;;;;5060928;28;20041;-46
2022/01/09 01:53:13;;;;;;;17.90;15.98;;;4.30;99.90;;;;;;5060223;28;20056;-48
2022/01/09 01:55:41;;;;;;;18.23;16.42;;;4.30;99.90;;;;;;5059633;28;20360;-47
2022/01/09 01:58:10;;;;;;;18.63;16.98;;;4.30;99.90;;;;;;5064606;28;20083;-49
2022/01/09 02:00:37;;;;;;;20.23;18.20;;;4.30;99.90;;;;;;5055568;28;20040;-47
2022/01/09 02:03:03;;;;;;;21.67;19.33;;;4.30;99.90;;;;;;5065046;28;20422;-47
2022/01/09 02:05:29;;;;;;;21.30;19.10;;;4.30;99.90;;;;;;5053869;28;20029;-48
2022/01/09 02:07:58;;;;;;;21.55;19.35;;;4.30;99.90;;;;;;5058969;28;20037;-47
2022/01/09 02:10:23;;;;;;;19.17;17.38;;;4.30;99.90;;;;;;5060498;28;20037;-48
2022/01/09 02:12:52;;;;;;;20.65;18.42;;;4.30;99.90;;;;;;5062268;28;20194;-48
2022/01/09 02:15:34;;;;;;;;;;;4.30;99.90;;;;;;5064924;28;20123;-46
2022/01/09 02:18:20;;;;;;;17.95;16.15;;;4.30;99.90;;;;;;5067398;28;19920;-48
2022/01/09 02:20:49;;;;;;;17.17;15.27;;;4.30;99.90;;;;;;5067185;28;20048;-47
2022/01/09 02:23:16;;;;;;;14.90;13.52;;;4.40;99.90;;;;;;5071553;28;20044;-49
2022/01/09 02:25:43;;;;;;;15.65;14.18;;;4.40;99.90;;;;;;5067232;28;20029;-47
2022/01/09 02:28:11;;;;;;;14.93;13.52;;;4.40;99.90;;;;;;5059893;28;20032;-47
2022/01/09 02:30:37;;;;;;;16.40;14.70;;;4.40;99.90;;;;;;5067183;28;20382;-46
2022/01/09 02:33:06;;;;;;;16.33;14.73;;;4.40;99.90;;;;;;5063176;28;20037;-48
2022/01/09 02:35:32;;;;;;;20.63;16.73;;;4.40;99.90;;;;;;5071744;28;20076;-50
2022/01/09 02:37:58;;;;;;;18.65;15.65;;;4.40;99.90;;;;;;5059363;28;20043;-46
2022/01/09 02:40:24;;;;;;;17.42;15.43;;;4.40;99.90;;;;;;5068189;28;20131;-46
2022/01/09 02:42:51;;;;;;;19.85;16.90;;;4.40;99.90;;;;;;5074416;28;20074;-46
2022/01/09 02:45:21;;;;;;;19.85;15.23;;;4.40;99.90;;;;;;5068716;28;20037;-46
2022/01/09 02:47:47;;;;;;;17.10;14.80;;;4.40;99.90;;;;;;5071500;28;20048;-47
2022/01/09 02:52:53;;;;;;;18.65;15.38;;;4.40;99.90;;;;;;5062367;28;20049;-46
2022/01/09 02:55:20;;;;;;;22.90;16.80;;;4.40;99.90;;;;;;5054859;28;20441;-46
2022/01/09 02:57:48;;;;;;;21.65;16.90;;;4.50;99.90;;;;;;5062778;28;20043;-47
2022/01/09 03:00:16;;;;;;;;;;;4.40;99.90;;;;;;5066925;28;20078;-47
2022/01/09 03:02:42;;;;;;;21.10;16.05;;;4.40;99.90;;;;;;5071615;28;19966;-47
2022/01/09 03:05:08;;;;;;;22.75;16.30;;;4.50;99.90;;;;;;5071840;28;20041;-46
2022/01/09 03:07:34;;;;;;;21.85;16.85;;;4.50;99.90;;;;;;5063451;28;20552;-46
2022/01/09 03:09:59;;;;;;;22.88;17.33;;;4.50;99.90;;;;;;5066615;28;20033;-47
2022/01/09 03:12:25;;;;;;;22.40;16.27;;;4.50;99.90;;;;;;5072265;28;20165;-47
2022/01/09 03:14:51;;;;;;;17.17;13.57;;;4.50;99.90;;;;;;5064586;28;20049;-46
2022/01/09 03:17:16;;;;;;;18.15;13.50;;;4.60;99.90;;;;;;5065150;28;20124;-46
2022/01/09 03:19:42;;;;;;;18.75;13.95;;;4.60;99.90;;;;;;5061367;28;20065;-46
2022/01/09 03:22:08;;;;;;;18.90;13.75;;;4.60;99.90;;;;;;5063720;28;20403;-46
2022/01/09 03:24:34;;;;;;;21.48;12.80;;;4.70;99.90;;;;;;5068873;28;20044;-47
2022/01/09 03:27:01;;;;;;;20.80;13.27;;;4.70;99.90;;;;;;5062592;28;20045;-46
2022/01/09 03:29:27;;;;;;;21.58;13.27;;;4.70;99.90;;;;;;5059948;28;20090;-48
2022/01/09 03:31:53;;;;;;;23.23;13.45;;;4.70;99.90;;;;;;5060962;28;20124;-46
2022/01/09 03:34:19;;;;;;;20.50;12.38;;;4.70;99.90;;;;;;5067561;28;20049;-47
2022/01/09 03:36:44;;;;;;;22.25;13.23;;;4.80;99.90;;;;;;5064823;28;20454;-48
2022/01/09 03:39:10;;;;;;;25.02;13.80;;;4.80;99.90;;;;;;5060852;28;20462;-47
2022/01/09 03:41:35;;;;;;;20.88;12.93;;;4.80;99.90;;;;;;5059698;28;20515;-47
2022/01/09 03:44:01;;;;;;;23.45;13.65;;;4.80;99.90;;;;;;5065797;28;20044;-47
2022/01/09 03:46:26;;;;;;;28.35;14.05;;;4.80;99.90;;;;;;5063420;28;20066;-46
2022/01/09 03:48:52;;;;;;;25.65;13.15;;;4.90;99.90;;;;;;5062200;28;20055;-47
2022/01/09 03:51:18;;;;;;;24.23;11.52;;;4.90;99.90;;;;;;5065521;28;20032;-47
2022/01/09 03:53:44;;;;;;;28.38;11.73;;;4.90;99.90;;;;;;5063177;28;20055;-47
2022/01/09 03:56:09;;;;;;;26.58;11.20;;;4.90;99.90;;;;;;5062040;28;20041;-47
2022/01/09 03:58:36;;;;;;;24.98;11.50;;;5.00;99.90;;;;;;5063257;28;20078;-48
2022/01/09 04:01:06;;;;;;;26.65;10.90;;;5.00;99.90;;;;;;5070300;28;20122;-50
2022/01/09 04:03:32;;;;;;;34.67;8.65;;;5.10;99.90;;;;;;5065120;28;20047;-46
2022/01/09 04:06:00;;;;;;;35.10;7.82;;;5.10;99.90;;;;;;5060844;28;20041;-48
2022/01/09 04:08:26;;;;;;;35.78;8.10;;;5.10;99.90;;;;;;5062842;28;20036;-48
2022/01/09 04:10:52;;;;;;;32.80;6.25;;;5.20;99.90;;;;;;5069881;28;20044;-50
2022/01/09 04:13:18;;;;;;;44.80;6.60;;;5.20;99.90;;;;;;5068167;28;20052;-49
2022/01/09 04:15:49;;;;;;;41.65;6.35;;;5.30;99.90;;;;;;5060912;28;20182;-46
2022/01/09 04:18:19;;;;;;;44.13;5.63;;;5.40;99.90;;;;;;5068160;28;20060;-47
2022/01/09 04:20:46;;;;;;;47.10;5.53;;;5.40;99.90;;;;;;5062694;28;20053;-47
2022/01/09 04:23:12;;;;;;;41.92;5.53;;;5.40;99.90;;;;;;5060648;28;20045;-49
2022/01/09 04:25:38;;;;;;;40.33;5.13;;;5.50;99.90;;;;;;5061662;28;20506;-48
2022/01/09 04:28:04;;;;;;;52.40;5.90;;;5.50;99.90;;;;;;5066037;28;20047;-48
2022/01/09 04:30:30;;;;;;;41.60;5.93;;;5.50;99.90;;;;;;5056929;28;20032;-47
2022/01/09 04:32:56;;;;;;;41.08;5.60;;;5.50;99.90;;;;;;5055035;28;20109;-47
2022/01/09 04:35:21;;;;;;;40.88;5.57;;;5.60;99.90;;;;;;5060923;28;20348;-49
2022/01/09 04:37:48;;;;;;;38.75;5.93;;;5.60;99.90;;;;;;5059124;28;20041;-47
2022/01/09 04:40:15;;;;;;;48.10;6.05;;;5.60;99.90;;;;;;5061495;28;20552;-48
2022/01/09 04:42:45;;;;;;;36.08;5.85;;;5.60;99.90;;;;;;5070877;28;20044;-45
2022/01/09 04:45:13;;;;;;;38.80;5.63;;;5.60;99.90;;;;;;5065702;28;20091;-48
2022/01/09 04:47:42;;;;;;;34.83;4.95;;;5.60;99.90;;;;;;5064536;28;20052;-50
2022/01/09 04:50:15;;;;;;;40.17;5.50;;;5.60;99.90;;;;;;5060215;28;20037;-47
2022/01/09 04:52:41;;;;;;;30.70;5.07;;;5.60;99.90;;;;;;5064922;28;20469;-47
2022/01/09 04:55:07;;;;;;;41.60;5.68;;;5.60;99.90;;;;;;5067615;28;20060;-48
2022/01/09 04:57:33;;;;;;;34.28;4.88;;;5.60;99.90;;;;;;5059409;28;20451;-47
2022/01/09 04:59:59;;;;;;;38.72;5.03;;;5.70;99.90;;;;;;5057360;28;20123;-46
2022/01/09 05:02:24;;;;;;;30.52;4.65;;;5.70;99.90;;;;;;5067865;28;20048;-49
2022/01/09 05:04:50;;;;;;;42.53;5.57;;;5.70;99.90;;;;;;5067022;28;20245;-47
2022/01/09 05:07:15;;;;;;;33.95;4.68;;;5.70;99.90;;;;;;5068807;28;20045;-50
2022/01/09 05:09:41;;;;;;;32.47;4.55;;;5.70;99.90;;;;;;5064661;28;20074;-48
2022/01/09 05:12:07;;;;;;;30.63;4.38;;;5.70;99.90;;;;;;5062493;28;20414;-50
2022/01/09 05:14:32;;;;;;;25.50;4.45;;;5.70;99.90;;;;;;5068858;28;20049;-48
2022/01/09 05:16:58;;;;;;;30.35;4.97;;;5.80;99.90;;;;;;5062067;28;20056;-49
2022/01/09 05:19:28;;;;;;;25.33;3.88;;;5.80;99.90;;;;;;5064184;28;20047;-47
2022/01/09 05:21:55;;;;;;;24.52;3.85;;;5.70;99.90;;;;;;5065183;28;20068;-50
2022/01/09 05:24:21;;;;;;;33.72;4.40;;;5.80;99.90;;;;;;5066333;28;20053;-49
2022/01/09 05:26:46;;;;;;;23.67;4.28;;;5.70;99.90;;;;;;5061387;28;20090;-47
2022/01/09 05:29:12;;;;;;;27.25;3.92;;;5.70;99.90;;;;;;5054871;28;20072;-47
2022/01/09 05:31:38;;;;;;;25.63;3.92;;;5.70;99.90;;;;;;5059099;28;20455;-47
2022/01/09 05:34:04;;;;;;;24.13;4.72;;;5.60;99.90;;;;;;5059498;28;20136;-48
2022/01/09 05:36:30;;;;;;;23.02;3.33;;;5.70;99.90;;;;;;5053746;28;20112;-47
2022/01/09 05:38:56;;;;;;;23.25;3.38;;;5.60;99.90;;;;;;5066040;28;20056;-48
2022/01/09 05:41:22;;;;;;;16.38;3.42;;;5.60;99.90;;;;;;5061039;28;20135;-48
2022/01/09 05:43:48;;;;;;;20.42;3.28;;;5.60;99.90;;;;;;5060381;28;20037;-49
2022/01/09 05:46:13;;;;;;;21.83;3.00;;;5.50;99.90;;;;;;5061363;28;20040;-46
2022/01/09 05:48:39;;;;;;;17.45;2.90;;;5.50;99.90;;;;;;5060648;28;20482;-48
2022/01/09 05:51:04;;;;;;;17.85;2.70;;;5.50;99.90;;;;;;5060187;28;20430;-52
2022/01/09 05:53:30;;;;;;;18.60;3.15;;;5.40;99.90;;;;;;5063196;28;20428;-48
2022/01/09 05:55:55;;;;;;;20.88;2.67;;;5.40;99.90;;;;;;5069633;28;20041;-47
2022/01/09 05:58:21;;;;;;;21.90;4.13;;;5.30;99.90;;;;;;5067087;28;20044;-48
2022/01/09 06:00:47;;;;;;;21.10;3.90;;;5.30;99.90;;;;;;5066630;28;20551;-49
2022/01/09 06:03:12;;;;;;;25.33;3.60;;;5.30;99.90;;;;;;5058253;28;20040;-47
2022/01/09 06:05:38;;;;;;;25.05;4.20;;;5.20;99.90;;;;;;5060762;28;20098;-49
2022/01/09 06:08:04;;;;;;;20.30;2.95;;;5.20;99.90;;;;;;5068901;28;20039;-47
2022/01/09 06:10:29;;;;;;;24.55;3.83;;;5.20;99.90;;;;;;5054034;28;20123;-47
2022/01/09 06:12:55;;;;;;;23.55;4.35;;;5.20;99.90;;;;;;5059630;28;20068;-48
2022/01/09 06:15:20;;;;;;;22.98;3.78;;;5.20;99.90;;;;;;5058392;28;20089;-48
2022/01/09 06:17:46;;;;;;;22.25;3.58;;;5.20;99.90;;;;;;5056397;28;20102;-50
2022/01/09 06:20:13;;;;;;;21.35;3.55;;;5.20;99.90;;;;;;5062940;28;20048;-47
2022/01/09 06:22:41;;;;;;;20.75;3.35;;;5.20;99.90;;;;;;5061726;28;20045;-47
2022/01/09 06:25:07;;;;;;;25.47;3.67;;;5.20;99.90;;;;;;5063549;28;20489;-48
2022/01/09 06:27:33;;;;;;;21.08;3.17;;;5.20;99.90;;;;;;5062600;28;20301;-48
2022/01/09 06:29:59;;;;;;;20.73;3.22;;;5.20;99.90;;;;;;5067021;28;20032;-52
2022/01/09 06:32:25;;;;;;;15.68;3.03;;;5.10;99.90;;;;;;5066724;28;20048;-47
2022/01/09 06:34:50;;;;;;;13.68;2.97;;;5.10;99.90;;;;;;5051681;28;20558;-47
2022/01/09 06:37:16;;;;;;;17.65;2.80;;;5.10;99.90;;;;;;5056411;28;20124;-48
2022/01/09 06:39:43;;;;;;;18.42;2.75;;;5.10;99.90;;;;;;5067039;28;20040;-48
2022/01/09 06:42:09;;;;;;;19.13;3.03;;;5.10;99.90;;;;;;5066539;28;20052;-49
2022/01/09 06:44:35;;;;;;;16.45;3.13;;;5.10;99.90;;;;;;5068294;28;20113;-48
2022/01/09 06:47:01;;;;;;;16.40;2.85;;;5.10;99.90;;;;;;5068043;28;20443;-48
2022/01/09 06:49:27;;;;;;;14.10;2.63;;;5.10;99.90;;;;;;5059100;28;20049;-50
2022/01/09 06:51:52;;;;;;;14.32;2.67;;;5.10;99.90;;;;;;5060594;28;20090;-48
2022/01/09 06:54:18;;;;;;;14.77;1.88;;;5.10;99.90;;;;;;5055685;28;20466;-48
2022/01/09 06:56:44;;;;;;;10.38;2.20;;;5.00;99.90;;;;;;5061935;28;20048;-49
2022/01/09 06:59:09;;;;;;;13.20;2.03;;;5.00;99.90;;;;;;5064847;28;20028;-47
2022/01/09 07:01:35;;;;;;;11.13;2.13;;;4.90;99.90;;;;;;5061847;28;20616;-49
2022/01/09 07:04:00;;;;;;;15.32;2.50;;;5.00;99.90;;;;;;5062466;28;20087;-47
2022/01/09 07:06:26;;;;;;;14.90;2.90;;;4.90;99.90;;;;;;5058389;28;20483;-50
2022/01/09 07:08:52;;;;;;;15.43;2.13;;;4.90;99.90;;;;;;5057721;28;20049;-49
2022/01/09 07:11:17;;;;;;;10.80;2.60;;;4.90;99.90;;;;;;5063151;28;20048;-48
2022/01/09 07:13:43;;;;;;;11.25;2.05;;;4.90;99.90;;;;;;5062513;28;20047;-50
2022/01/09 07:16:09;;;;;;;17.88;2.63;;;4.90;99.90;;;;;;5067474;28;20041;-49
2022/01/09 07:18:34;;;;;;;16.25;2.58;;;4.80;99.90;;;;;;5070808;28;20123;-49
2022/01/09 07:21:00;;;;;;;15.27;2.30;;;4.80;99.90;;;;;;5066973;28;20444;-49
2022/01/09 07:23:26;;;;;;;9.68;1.95;;;4.80;99.90;;;;;;5067178;28;20047;-49
2022/01/09 07:25:51;;;;;;;15.77;2.35;;;4.80;99.90;;;;;;5064397;28;20203;-50
2022/01/09 07:28:17;;;;;;;9.68;2.00;;;4.80;99.90;;;;;;5054951;28;20372;-47
2022/01/09 07:30:43;;;;;;;12.68;2.25;;;4.80;99.90;;;;;;5066573;28;20075;-48
2022/01/09 07:33:08;;;;;;;14.43;2.45;;;4.70;99.90;;;;;;5067276;28;20044;-47
2022/01/09 07:35:34;;;;;;;10.07;2.10;;;4.70;99.90;;;;;;5069410;28;20041;-49
2022/01/09 07:38:00;;;;;;;14.10;2.45;;;4.70;99.90;;;;;;5059140;28;20688;-48
2022/01/09 07:40:28;;;;;;;9.93;1.95;;;4.70;99.90;;;;;;5066954;28;20056;-49
2022/01/09 07:42:53;;;;;;;11.43;2.38;;;4.70;99.90;;;;;;5065604;28;20093;-47
2022/01/09 07:45:24;;;;;;;13.23;2.15;;;4.70;99.90;;;;;;5055851;28;20465;-49
2022/01/09 07:47:50;;;;;;;13.45;2.70;;;4.70;99.90;;;;;;5060960;28;20401;-48
2022/01/09 07:50:15;;;;;;;15.75;2.35;;;4.70;99.90;;;;;;5064504;28;20413;-48
2022/01/09 07:52:41;;;;;;;14.55;2.83;;;4.70;99.90;;;;;;5057462;28;20064;-48
2022/01/09 07:55:08;;;;;;;14.45;2.35;;;4.70;99.90;;;;;;5064750;28;20590;-52
2022/01/09 07:57:34;;;;;;;11.57;2.40;;;4.70;99.90;;;;;;5063010;28;20040;-48
2022/01/09 08:00:03;;;;;;;16.83;2.90;;;4.80;99.90;;;;;;5067046;28;20037;-49
2022/01/09 08:02:29;;;;;;;12.20;2.72;;;4.70;99.90;;;;;;5070126;28;20044;-47
2022/01/09 08:04:55;;;;;;;16.15;2.65;;;4.70;99.90;;;;;;5069188;28;20147;-50
2022/01/09 08:07:21;;;;;;;10.95;2.33;;;4.70;99.90;;;;;;5070805;28;20051;-51
2022/01/09 08:09:47;;;;;;;10.32;1.83;;;4.70;99.90;;;;;;5061435;28;20036;-52
2022/01/09 08:12:14;;;;;;;10.23;2.00;;;4.70;99.90;;;;;;5067983;28;20045;-49
2022/01/09 08:14:44;;;;;;;8.75;1.98;;;4.70;99.90;;;;;;5063312;28;20049;-48
2022/01/09 08:17:10;;;;;;;9.90;1.95;;;4.70;99.90;;;;;;5063181;28;20083;-48
2022/01/09 08:19:36;;;;;;;8.70;1.90;;;4.80;99.90;;;;;;5064627;28;20063;-49
2022/01/09 08:22:03;;;;;;;10.15;1.92;;;4.90;99.90;;;;;;5059424;28;20458;-51
2022/01/09 08:24:28;;;;;;;10.63;2.10;;;4.90;99.90;;;;;;5059935;28;20578;-49
2022/01/09 08:26:54;;;;;;;7.82;1.80;;;4.90;99.90;;;;;;5055086;28;20378;-51
2022/01/09 08:29:20;;;;;;;8.25;1.73;;;4.90;99.90;;;;;;5063863;28;20147;-49
2022/01/09 08:31:45;;;;;;;9.10;1.80;;;5.00;99.90;;;;;;5070512;28;20040;-47
2022/01/09 08:34:11;;;;;;;11.80;2.22;;;4.90;99.90;;;;;;5056827;28;20086;-49
2022/01/09 08:36:37;;;;;;;10.43;2.00;;;5.00;99.90;;;;;;5068606;28;20051;-49
2022/01/09 08:39:05;;;;;;;15.88;2.22;;;4.90;99.90;;;;;;5058929;28;20127;-52
2022/01/09 08:41:31;;;;;;;8.80;1.88;;;5.00;99.90;;;;;;5063390;28;20384;-49
2022/01/09 08:43:57;;;;;;;8.20;1.67;;;5.00;99.90;;;;;;5065400;28;20040;-48
2022/01/09 08:46:22;;;;;;;9.90;1.52;;;5.00;99.90;;;;;;5068524;28;20250;-48
2022/01/09 08:48:49;;;;;;;8.93;1.77;;;5.00;99.90;;;;;;5062385;28;20111;-50
2022/01/09 08:51:14;;;;;;;9.65;1.70;;;5.00;99.90;;;;;;5065717;28;20043;-50
2022/01/09 08:53:41;;;;;;;9.45;2.55;;;5.00;99.90;;;;;;5063286;28;20036;-49
2022/01/09 08:56:07;;;;;;;9.70;1.80;;;5.00;99.90;;;;;;5064598;28;20071;-50
2022/01/09 08:58:33;;;;;;;8.25;1.83;;;5.00;99.90;;;;;;5060904;28;20080;-49
2022/01/09 09:00:59;;;;;;;12.63;2.05;;;5.00;99.90;;;;;;5062224;28;20520;-47
2022/01/09 09:03:25;;;;;;;10.13;2.17;;;5.00;99.90;;;;;;5060863;28;20063;-48
2022/01/09 09:05:51;;;;;;;11.02;1.70;;;5.00;99.90;;;;;;5066957;28;20056;-47
2022/01/09 09:08:17;;;;;;;10.07;2.63;;;5.00;99.90;;;;;;5051835;28;20158;-48
2022/01/09 09:10:42;;;;;;;8.35;1.88;;;5.00;99.90;;;;;;5070816;28;20148;-47
2022/01/09 09:13:08;;;;;;;11.45;2.17;;;5.00;99.90;;;;;;5067208;28;20044;-48
2022/01/09 09:15:34;;;;;;;12.63;2.10;;;5.00;99.90;;;;;;5054627;28;20044;-49
2022/01/09 09:18:00;;;;;;;16.20;2.30;;;5.00;99.90;;;;;;5061665;28;20055;-48
2022/01/09 09:20:25;;;;;;;14.95;2.30;;;5.00;99.90;;;;;;5059723;28;20041;-48
2022/01/09 09:22:51;;;;;;;15.32;2.53;;;5.00;99.90;;;;;;5066565;28;20052;-49
2022/01/09 09:25:18;;;;;;;16.52;2.70;;;5.10;99.90;;;;;;5055594;28;20053;-49
2022/01/09 09:27:44;;;;;;;11.95;2.30;;;5.00;99.90;;;;;;5061859;28;20036;-47
2022/01/09 09:30:11;;;;;;;13.43;2.35;;;5.00;99.90;;;;;;5058439;28;20178;-46
2022/01/09 09:32:37;;;;;;;14.10;2.58;;;5.00;99.90;;;;;;5057203;28;20033;-50
2022/01/09 09:35:04;;;;;;;20.30;2.92;;;5.10;99.90;;;;;;5064272;28;20063;-48
2022/01/09 09:37:31;;;;;;;20.00;3.85;;;5.10;99.90;;;;;;5067504;28;20029;-47
2022/01/09 09:39:56;;;;;;;12.75;2.67;;;5.10;99.90;;;;;;5061233;28;20798;-50
2022/01/09 09:42:22;;;;;;;15.93;3.35;;;5.20;99.90;;;;;;5054545;28;20118;-48
2022/01/09 09:44:48;;;;;;;21.60;4.03;;;5.20;99.90;;;;;;5060266;28;20124;-47
2022/01/09 09:47:17;;;;;;;16.70;3.63;;;5.20;99.90;;;;;;5065476;28;20052;-47
2022/01/09 09:49:43;;;;;;;20.85;3.25;;;5.20;99.90;;;;;;5063167;28;20072;-48
2022/01/09 09:52:08;;;;;;;20.45;4.03;;;5.30;99.90;;;;;;5064345;28;20040;-47
2022/01/09 09:54:34;;;;;;;17.77;2.88;;;5.30;99.90;;;;;;5064379;28;20048;-48
2022/01/09 09:57:00;;;;;;;16.67;3.28;;;5.30;99.90;;;;;;5067116;28;20055;-48
2022/01/09 09:59:28;;;;;;;18.27;2.90;;;5.30;99.90;;;;;;5059414;28;20037;-47
2022/01/09 10:01:53;;;;;;;;;;;5.40;99.90;;;;;;5061618;28;20052;-48
2022/01/09 10:04:19;;;;;;;17.13;2.97;;;5.40;99.90;;;;;;5064485;28;19924;-47
2022/01/09 10:06:49;;;;;;;13.68;3.22;;;5.40;99.90;;;;;;5063214;28;20043;-47
2022/01/09 10:09:19;;;;;;;10.77;2.85;;;5.40;99.90;;;;;;5066692;28;20145;-49
2022/01/09 10:11:45;;;;;;;12.20;2.85;;;5.50;99.90;;;;;;5058933;28;20032;-48
2022/01/09 10:14:20;;;;;;;17.88;3.00;;;5.50;99.90;;;;;;5062075;28;20075;-47
2022/01/09 10:17:07;;;;;;;12.00;3.00;;;5.50;99.90;;;;;;5061234;28;20490;-49
2022/01/09 10:19:44;;;;;;;14.25;2.70;;;5.50;99.90;;;;;;5061951;28;20058;-48
2022/01/09 10:22:33;;;;;;;14.82;2.85;;;5.50;99.90;;;;;;5069175;28;20036;-48
2022/01/09 10:25:21;;;;;;;15.45;3.13;;;5.60;99.90;;;;;;5065290;28;20033;-47
2022/01/09 10:27:48;;;;;;;16.00;3.00;;;5.60;99.90;;;;;;5059389;28;20052;-48
2022/01/09 10:30:15;;;;;;;14.32;3.13;;;5.70;99.90;;;;;;5059442;28;20453;-48
2022/01/09 10:32:41;;;;;;;21.27;3.33;;;5.70;99.90;;;;;;5060613;28;20051;-48
2022/01/09 10:35:15;;;;;;;19.02;3.55;;;5.80;99.90;;;;;;5067546;28;20036;-48
2022/01/09 10:37:43;;;;;;;16.40;2.88;;;5.80;99.90;;;;;;5071074;28;20048;-49
2022/01/09 10:40:19;;;;;;;14.10;2.78;;;5.80;99.90;;;;;;5066208;28;20403;-48
2022/01/09 10:42:45;;;;;;;20.70;3.10;;;5.90;99.90;;;;;;5066215;28;20448;-50
2022/01/09 10:45:22;;;;;;;13.95;3.15;;;5.90;99.90;;;;;;5060851;28;20052;-50
2022/01/09 10:47:48;;;;;;;11.07;2.67;;;6.00;99.90;;;;;;5065375;28;20039;-48
2022/01/09 10:50:28;;;;;;;15.70;3.08;;;6.00;99.90;;;;;;5066647;28;20045;-52
2022/01/09 10:53:20;;;;;;;12.70;2.83;;;6.00;99.90;;;;;;5067347;28;20078;-47
2022/01/09 10:56:01;;;;;;;20.05;3.80;;;6.10;99.90;;;;;;5064267;28;20081;-48
2022/01/09 10:58:28;;;;;;;14.20;3.33;;;6.20;99.90;;;;;;5064487;28;20048;-50
2022/01/09 11:01:23;;;;;;;11.82;3.30;;;6.20;99.90;;;;;;5068177;28;20045;-47
2022/01/09 11:03:57;;;;;;;13.52;2.97;;;6.20;99.90;;;;;;5067765;28;20036;-48
2022/01/09 11:06:25;;;;;;;13.13;2.88;;;6.30;99.90;;;;;;5081561;28;20060;-50
2022/01/09 11:08:53;;;;;;;15.32;3.20;;;6.40;99.90;;;;;;5072387;28;20140;-49
2022/01/09 11:11:27;;;;;;;14.75;3.22;;;6.40;99.90;;;;;;5059001;28;20049;-52
2022/01/09 11:13:55;;;;;;;15.07;2.80;;;6.50;99.90;;;;;;5062455;28;20397;-47
2022/01/09 11:16:33;;;;;;;19.63;3.25;;;6.50;99.90;;;;;;5055316;28;20443;-47
2022/01/09 11:19:16;;;;;;;17.10;2.85;;;6.50;99.90;;;;;;5065443;28;20033;-46
2022/01/09 11:21:44;;;;;;;13.90;2.85;;;6.50;99.90;;;;;;5066792;28;20136;-48
2022/01/09 11:24:21;;;;;;;8.98;2.40;;;6.50;99.90;;;;;;5063773;28;20036;-47
2022/01/09 11:26:55;;;;;;;14.95;2.80;;;6.50;99.90;;;;;;5061021;28;20079;-49
2022/01/09 11:30:00;;;;;;;12.43;2.55;;;6.50;99.90;;;;;;5063590;28;20045;-49
2022/01/09 11:32:54;;;;;;;14.63;2.80;;;6.40;99.90;;;;;;5061364;28;20048;-46
2022/01/09 11:35:31;;;;;;;17.30;3.33;;;6.40;99.90;;;;;;5060947;28;20248;-49
2022/01/09 11:38:16;;;;;;;14.77;2.90;;;6.40;99.90;;;;;;5066761;28;20040;-47
2022/01/09 11:40:41;;;;;;;14.82;2.95;;;6.30;99.90;;;;;;5063454;28;20075;-47
2022/01/09 11:43:15;;;;;;;12.98;2.85;;;6.30;99.90;;;;;;5066009;28;20041;-46
2022/01/09 11:45:57;;;;;;;16.27;3.20;;;6.30;99.90;;;;;;5065469;28;20510;-48
2022/01/09 11:48:57;;;;;;;12.68;3.00;;;6.30;99.90;;;;;;5066100;28;20086;-46
2022/01/09 11:51:25;;;;;;;17.80;2.97;;;6.30;99.90;;;;;;5057743;28;20486;-47
2022/01/09 11:54:12;;;;;;;15.00;2.75;;;6.30;99.90;;;;;;5066420;28;20095;-48
2022/01/09 11:56:47;;;;;;;15.15;2.78;;;6.30;99.90;;;;;;5067026;28;20045;-48
2022/01/09 11:59:19;;;;;;;11.27;2.30;;;6.30;99.90;;;;;;5063267;28;20126;-48
2022/01/09 12:01:46;;;;;;;13.80;2.40;;;6.30;99.90;;;;;;5069547;28;20045;-47
2022/01/09 12:04:30;;;;;;;13.60;3.00;;;6.30;99.90;;;;;;5064700;28;20057;-48
2022/01/09 12:07:00;;;;;;;16.60;2.83;;;6.30;99.90;;;;;;5059562;28;20045;-50
2022/01/09 12:09:41;;;;;;;16.00;3.05;;;6.30;99.90;;;;;;5068688;28;20040;-47
2022/01/09 12:12:11;;;;;;;13.35;3.00;;;6.50;99.90;;;;;;5072749;28;20063;-46
2022/01/09 12:14:51;;;;;;;13.07;3.50;;;6.60;99.90;;;;;;5070011;28;20047;-49
2022/01/09 12:17:23;;;;;;;19.23;3.28;;;6.60;99.90;;;;;;5061293;28;20178;-47
2022/01/09 12:20:10;;;;;;;15.45;3.15;;;6.70;99.90;;;;;;5062497;28;20044;-47
2022/01/09 12:22:48;;;;;;;16.17;2.75;;;6.70;99.90;;;;;;5064058;28;20048;-48
2022/01/09 12:25:39;;;;;;;12.38;3.22;;;6.80;99.90;;;;;;5053573;28;20048;-49
2022/01/09 12:28:09;;;;;;;17.30;3.72;;;;;;;;;;5067819;28;20056;-50
2022/01/09 12:30:41;;;;;;;12.85;3.25;;;7.00;99.90;;;;;;5053399;28;20084;-49
2022/01/09 12:33:27;;;;;;;17.58;3.25;;;7.00;99.90;;;;;;5053142;28;20041;-48
2022/01/09 12:36:04;;;;;;;13.80;3.03;;;7.10;99.90;;;;;;5061399;28;20122;-51
2022/01/09 12:38:34;;;;;;;15.48;2.97;;;7.10;99.90;;;;;;5064141;28;20474;-48
2022/01/09 12:41:05;;;;;;;16.50;3.35;;;7.10;99.90;;;;;;5061151;28;20040;-51
2022/01/09 12:43:32;;;;;;;14.80;2.85;;;7.10;99.90;;;;;;5063988;28;20052;-51
2022/01/09 12:45:58;;;;;;;15.63;2.90;;;7.00;99.90;;;;;;5068926;28;20070;-48
2022/01/09 12:48:29;;;;;;;15.73;3.40;;;7.00;99.90;;;;;;5063766;28;20391;-50
2022/01/09 12:51:06;;;;;;;12.88;3.00;;;7.00;99.90;;;;;;5058074;28;20507;-50
2022/01/09 12:53:40;;;;;;;12.88;2.70;;;7.10;99.90;;;;;;5069104;28;20044;-50
2022/01/09 12:56:12;;;;;;;13.40;2.70;;;7.10;99.90;;;;;;5062325;28;20363;-49